sensor_id;sensor_type;location;lat;lon;timestamp;temperature;humidity
50067;DHT22;35952;52.524;13.340;2023-02-28T00:00:35;2.60;99.90
50067;DHT22;35952;52.524;13.340;2023-02-28T00:03:01;2.50;99.90
50067;DHT22;35952;52.524;13.340;2023-02-28T00:05:28;2.50;99.90
50067;DHT22;35952;52.524;13.340;2023-02-28T00:07:54;2.50;99.90
50067;DHT22;35952;52.524;13.340;2023-02-28T00:10:22;2.50;99.90
50067;DHT22;35952;52.524;13.340;2023-02-28T00:12:49;2.40;99.90
50067;DHT22;35952;52.524;13.340;2023-02-28T00:15:15;2.40;99.90
50067;DHT22;35952;52.524;13.340;2023-02-28T00:17:40;2.50;99.90
50067;DHT22;35952;52.524;13.340;2023-02-28T00:20:07;2.50;99.90
50067;DHT22;35952;52.524;13.340;2023-02-28T00:22:45;2.50;99.90
50067;DHT22;35952;52.524;13.340;2023-02-28T00:25:13;2.60;99.90
50067;DHT22;35952;52.524;13.340;2023-02-28T00:27:41;2.60;99.90
50067;DHT22;35952;52.524;13.340;2023-02-28T00:30:10;2.50;99.90
50067;DHT22;35952;52.524;13.340;2023-02-28T00:32:37;2.50;99.90
50067;DHT22;35952;52.524;13.340;2023-02-28T00:35:04;2.50;99.90
50067;DHT22;35952;52.524;13.340;2023-02-28T00:37:29;2.60;99.90
50067;DHT22;35952;52.524;13.340;2023-02-28T00:39:56;2.60;99.90
50067;DHT22;35952;52.524;13.340;2023-02-28T00:42:21;2.60;99.90
50067;DHT22;35952;52.524;13.340;2023-02-28T00:44:58;2.70;99.90
50067;DHT22;35952;52.524;13.340;2023-02-28T00:47:24;2.80;99.90
50067;DHT22;35952;52.524;13.340;2023-02-28T00:49:50;2.70;99.90
50067;DHT22;35952;52.524;13.340;2023-02-28T00:52:15;2.80;99.90
50067;DHT22;35952;52.524;13.340;2023-02-28T00:54:41;2.90;99.90
50067;DHT22;35952;52.524;13.340;2023-02-28T00:57:06;2.90;99.90
50067;DHT22;35952;52.524;13.340;2023-02-28T00:59:31;2.80;99.90
50067;DHT22;35952;52.524;13.340;2023-02-28T01:01:57;2.90;99.90
50067;DHT22;35952;52.524;13.340;2023-02-28T01:04:22;2.80;99.90
50067;DHT22;35952;52.524;13.340;2023-02-28T01:06:48;2.80;99.90
50067;DHT22;35952;52.524;13.340;2023-02-28T01:09:14;2.60;99.90
50067;DHT22;35952;52.524;13.340;2023-02-28T01:11:39;2.60;99.90
50067;DHT22;35952;52.524;13.340;2023-02-28T01:14:07;2.50;99.90
50067;DHT22;35952;52.524;13.340;2023-02-28T01:16:32;2.50;99.90
50067;DHT22;35952;52.524;13.340;2023-02-28T01:18:58;2.60;99.90
50067;DHT22;35952;52.524;13.340;2023-02-28T01:21:23;2.60;99.90
50067;DHT22;35952;52.524;13.340;2023-02-28T01:23:50;2.60;99.90
50067;DHT22;35952;52.524;13.340;2023-02-28T01:26:18;2.80;99.90
50067;DHT22;35952;52.524;13.340;2023-02-28T01:28:45;2.60;99.90
50067;DHT22;35952;52.524;13.340;2023-02-28T01:31:11;2.60;99.90
50067;DHT22;35952;52.524;13.340;2023-02-28T01:33:37;2.60;99.90
50067;DHT22;35952;52.524;13.340;2023-02-28T01:36:06;2.50;99.90
50067;DHT22;35952;52.524;13.340;2023-02-28T01:38:32;2.40;99.90
50067;DHT22;35952;52.524;13.340;2023-02-28T01:40:58;2.40;99.90
50067;DHT22;35952;52.524;13.340;2023-02-28T01:43:24;2.40;99.90
50067;DHT22;35952;52.524;13.340;2023-02-28T01:45:52;2.40;99.90
50067;DHT22;35952;52.524;13.340;2023-02-28T01:48:19;2.40;99.90
50067;DHT22;35952;52.524;13.340;2023-02-28T01:50:47;2.40;99.90
50067;DHT22;35952;52.524;13.340;2023-02-28T01:53:19;2.30;99.90
50067;DHT22;35952;52.524;13.340;2023-02-28T01:55:50;2.30;99.90
50067;DHT22;35952;52.524;13.340;2023-02-28T01:58:17;2.30;99.90
50067;DHT22;35952;52.524;13.340;2023-02-28T02:00:43;2.30;99.90
50067;DHT22;35952;52.524;13.340;2023-02-28T02:03:12;2.30;99.90
50067;DHT22;35952;52.524;13.340;2023-02-28T02:05:39;2.30;99.90
50067;DHT22;35952;52.524;13.340;2023-02-28T02:08:09;2.30;99.90
50067;DHT22;35952;52.524;13.340;2023-02-28T02:10:41;2.20;99.90
50067;DHT22;35952;52.524;13.340;2023-02-28T02:18:26;2.00;99.90
50067;DHT22;35952;52.524;13.340;2023-02-28T02:29:50;1.50;99.90
50067;DHT22;35952;52.524;13.340;2023-02-28T02:32:28;1.40;99.90
50067;DHT22;35952;52.524;13.340;2023-02-28T02:35:28;1.30;99.90
50067;DHT22;35952;52.524;13.340;2023-02-28T02:38:04;1.10;99.90
50067;DHT22;35952;52.524;13.340;2023-02-28T02:40:38;1.10;99.90
50067;DHT22;35952;52.524;13.340;2023-02-28T02:43:13;1.00;99.90
50067;DHT22;35952;52.524;13.340;2023-02-28T02:45:49;1.00;99.90
50067;DHT22;35952;52.524;13.340;2023-02-28T02:48:20;1.00;99.90
50067;DHT22;35952;52.524;13.340;2023-02-28T02:50:52;1.00;99.90
50067;DHT22;35952;52.524;13.340;2023-02-28T02:53:24;1.00;99.90
50067;DHT22;35952;52.524;13.340;2023-02-28T02:55:52;1.00;99.90
50067;DHT22;35952;52.524;13.340;2023-02-28T02:58:22;1.00;99.90
50067;DHT22;35952;52.524;13.340;2023-02-28T03:00:53;0.90;99.90
50067;DHT22;35952;52.524;13.340;2023-02-28T03:03:20;0.90;99.90
50067;DHT22;35952;52.524;13.340;2023-02-28T03:05:54;0.80;99.90
50067;DHT22;35952;52.524;13.340;2023-02-28T03:08:20;0.80;99.90
50067;DHT22;35952;52.524;13.340;2023-02-28T03:10:48;0.80;99.90
50067;DHT22;35952;52.524;13.340;2023-02-28T03:16:35;0.70;99.90
50067;DHT22;35952;52.524;13.340;2023-02-28T03:25:08;0.60;99.90
50067;DHT22;35952;52.524;13.340;2023-02-28T03:27:49;0.70;99.90
50067;DHT22;35952;52.524;13.340;2023-02-28T03:30:33;0.60;99.90
50067;DHT22;35952;52.524;13.340;2023-02-28T03:33:19;0.60;99.90
50067;DHT22;35952;52.524;13.340;2023-02-28T03:36:01;0.60;99.90
50067;DHT22;35952;52.524;13.340;2023-02-28T03:41:10;0.60;99.90
50067;DHT22;35952;52.524;13.340;2023-02-28T03:43:41;0.50;99.90
50067;DHT22;35952;52.524;13.340;2023-02-28T03:46:11;0.40;99.90
50067;DHT22;35952;52.524;13.340;2023-02-28T03:48:46;0.30;99.90
50067;DHT22;35952;52.524;13.340;2023-02-28T03:51:16;0.30;99.90
50067;DHT22;35952;52.524;13.340;2023-02-28T03:53:47;0.30;99.90
50067;DHT22;35952;52.524;13.340;2023-02-28T03:56:22;0.30;99.90
50067;DHT22;35952;52.524;13.340;2023-02-28T03:59:01;0.30;99.90
50067;DHT22;35952;52.524;13.340;2023-02-28T04:01:29;0.30;99.90
50067;DHT22;35952;52.524;13.340;2023-02-28T04:03:57;0.20;99.90
50067;DHT22;35952;52.524;13.340;2023-02-28T04:06:23;0.20;99.90
50067;DHT22;35952;52.524;13.340;2023-02-28T04:08:50;0.20;99.90
50067;DHT22;35952;52.524;13.340;2023-02-28T04:11:34;0.10;99.90
50067;DHT22;35952;52.524;13.340;2023-02-28T04:14:01;0.10;99.90
50067;DHT22;35952;52.524;13.340;2023-02-28T04:16:28;0.10;99.90
50067;DHT22;35952;52.524;13.340;2023-02-28T04:18:54;0.00;99.90
50067;DHT22;35952;52.524;13.340;2023-02-28T04:21:40;0.10;99.90
50067;DHT22;35952;52.524;13.340;2023-02-28T04:24:07;0.10;99.90
50067;DHT22;35952;52.524;13.340;2023-02-28T04:26:35;0.10;99.90
50067;DHT22;35952;52.524;13.340;2023-02-28T04:29:03;0.00;99.90
50067;DHT22;35952;52.524;13.340;2023-02-28T04:31:29;0.00;99.90
50067;DHT22;35952;52.524;13.340;2023-02-28T04:33:54;-0.10;99.90
50067;DHT22;35952;52.524;13.340;2023-02-28T04:36:20;-0.10;99.90
50067;DHT22;35952;52.524;13.340;2023-02-28T04:38:46;-0.10;99.90
50067;DHT22;35952;52.524;13.340;2023-02-28T04:41:12;-0.10;99.90
50067;DHT22;35952;52.524;13.340;2023-02-28T04:43:38;0.00;99.90
50067;DHT22;35952;52.524;13.340;2023-02-28T04:46:05;0.00;99.90
50067;DHT22;35952;52.524;13.340;2023-02-28T04:48:33;-0.10;99.90
50067;DHT22;35952;52.524;13.340;2023-02-28T04:51:04;-0.10;99.90
50067;DHT22;35952;52.524;13.340;2023-02-28T04:53:30;-0.10;99.90
50067;DHT22;35952;52.524;13.340;2023-02-28T04:55:57;-0.10;99.90
50067;DHT22;35952;52.524;13.340;2023-02-28T04:58:22;-0.20;99.90
50067;DHT22;35952;52.524;13.340;2023-02-28T05:00:52;-0.30;99.90
50067;DHT22;35952;52.524;13.340;2023-02-28T05:03:19;-0.30;99.90
50067;DHT22;35952;52.524;13.340;2023-02-28T05:05:46;-0.30;99.90
50067;DHT22;35952;52.524;13.340;2023-02-28T05:08:11;-0.40;99.90
50067;DHT22;35952;52.524;13.340;2023-02-28T05:10:37;-0.40;99.90
50067;DHT22;35952;52.524;13.340;2023-02-28T05:13:03;-0.40;99.90
50067;DHT22;35952;52.524;13.340;2023-02-28T05:15:28;-0.30;99.90
50067;DHT22;35952;52.524;13.340;2023-02-28T05:17:54;-0.30;99.90
50067;DHT22;35952;52.524;13.340;2023-02-28T05:20:19;-0.30;99.90
50067;DHT22;35952;52.524;13.340;2023-02-28T05:22:46;-0.30;99.90
50067;DHT22;35952;52.524;13.340;2023-02-28T05:25:15;-0.30;99.90
50067;DHT22;35952;52.524;13.340;2023-02-28T05:27:41;-0.20;99.90
50067;DHT22;35952;52.524;13.340;2023-02-28T05:30:07;-0.20;99.90
50067;DHT22;35952;52.524;13.340;2023-02-28T05:32:36;-0.30;99.90
50067;DHT22;35952;52.524;13.340;2023-02-28T05:35:02;-0.30;99.90
50067;DHT22;35952;52.524;13.340;2023-02-28T05:37:27;-0.30;99.90
50067;DHT22;35952;52.524;13.340;2023-02-28T05:39:53;-0.30;99.90
50067;DHT22;35952;52.524;13.340;2023-02-28T05:42:18;-0.30;99.90
50067;DHT22;35952;52.524;13.340;2023-02-28T05:44:44;-0.40;99.90
50067;DHT22;35952;52.524;13.340;2023-02-28T05:47:10;-0.40;99.90
50067;DHT22;35952;52.524;13.340;2023-02-28T05:49:35;-0.40;99.90
50067;DHT22;35952;52.524;13.340;2023-02-28T05:52:01;-0.40;99.90
50067;DHT22;35952;52.524;13.340;2023-02-28T05:54:26;-0.40;99.90
50067;DHT22;35952;52.524;13.340;2023-02-28T05:56:52;-0.40;99.90
50067;DHT22;35952;52.524;13.340;2023-02-28T05:59:17;-0.50;99.90
50067;DHT22;35952;52.524;13.340;2023-02-28T06:01:44;-0.50;99.90
50067;DHT22;35952;52.524;13.340;2023-02-28T06:04:15;-0.40;99.90
50067;DHT22;35952;52.524;13.340;2023-02-28T06:06:45;-0.40;99.90
50067;DHT22;35952;52.524;13.340;2023-02-28T06:09:11;-0.40;99.90
50067;DHT22;35952;52.524;13.340;2023-02-28T06:11:37;-0.40;99.90
50067;DHT22;35952;52.524;13.340;2023-02-28T06:14:03;-0.40;99.90
50067;DHT22;35952;52.524;13.340;2023-02-28T06:16:31;-0.40;99.90
50067;DHT22;35952;52.524;13.340;2023-02-28T06:18:58;-0.40;99.90
50067;DHT22;35952;52.524;13.340;2023-02-28T06:21:24;-0.40;99.90
50067;DHT22;35952;52.524;13.340;2023-02-28T06:23:50;-0.30;99.90
50067;DHT22;35952;52.524;13.340;2023-02-28T06:26:16;-0.30;99.90
50067;DHT22;35952;52.524;13.340;2023-02-28T06:28:41;-0.30;99.90
50067;DHT22;35952;52.524;13.340;2023-02-28T06:31:12;-0.30;99.90
50067;DHT22;35952;52.524;13.340;2023-02-28T06:33:39;-0.20;99.90
50067;DHT22;35952;52.524;13.340;2023-02-28T06:36:06;-0.20;99.90
50067;DHT22;35952;52.524;13.340;2023-02-28T06:38:32;-0.10;99.90
50067;DHT22;35952;52.524;13.340;2023-02-28T06:40:59;-0.10;99.90
50067;DHT22;35952;52.524;13.340;2023-02-28T06:43:27;0.00;99.90
50067;DHT22;35952;52.524;13.340;2023-02-28T06:45:58;0.00;99.90
50067;DHT22;35952;52.524;13.340;2023-02-28T06:48:26;0.10;99.90
50067;DHT22;35952;52.524;13.340;2023-02-28T06:51:00;0.10;99.90
50067;DHT22;35952;52.524;13.340;2023-02-28T06:53:26;0.10;99.90
50067;DHT22;35952;52.524;13.340;2023-02-28T06:55:51;0.20;99.90
50067;DHT22;35952;52.524;13.340;2023-02-28T06:58:17;0.30;99.90
50067;DHT22;35952;52.524;13.340;2023-02-28T07:00:45;0.30;99.90
50067;DHT22;35952;52.524;13.340;2023-02-28T07:03:12;0.40;99.90
50067;DHT22;35952;52.524;13.340;2023-02-28T07:05:39;0.40;99.90
50067;DHT22;35952;52.524;13.340;2023-02-28T07:08:05;0.50;99.90
50067;DHT22;35952;52.524;13.340;2023-02-28T07:10:32;0.60;99.90
50067;DHT22;35952;52.524;13.340;2023-02-28T07:12:58;0.60;99.90
50067;DHT22;35952;52.524;13.340;2023-02-28T07:15:23;0.70;99.90
50067;DHT22;35952;52.524;13.340;2023-02-28T07:17:49;0.80;99.90
50067;DHT22;35952;52.524;13.340;2023-02-28T07:20:15;0.80;99.90
50067;DHT22;35952;52.524;13.340;2023-02-28T07:22:41;0.90;99.90
50067;DHT22;35952;52.524;13.340;2023-02-28T07:25:10;1.00;99.90
50067;DHT22;35952;52.524;13.340;2023-02-28T07:27:35;1.00;99.90
50067;DHT22;35952;52.524;13.340;2023-02-28T07:30:01;1.10;99.90
50067;DHT22;35952;52.524;13.340;2023-02-28T07:32:28;1.20;99.90
50067;DHT22;35952;52.524;13.340;2023-02-28T07:34:54;1.30;99.90
50067;DHT22;35952;52.524;13.340;2023-02-28T07:37:20;1.40;99.90
50067;DHT22;35952;52.524;13.340;2023-02-28T07:39:46;1.40;99.90
50067;DHT22;35952;52.524;13.340;2023-02-28T07:42:11;1.60;99.90
50067;DHT22;35952;52.524;13.340;2023-02-28T07:44:39;1.60;99.90
50067;DHT22;35952;52.524;13.340;2023-02-28T07:47:09;1.70;99.90
50067;DHT22;35952;52.524;13.340;2023-02-28T07:49:38;1.70;99.90
50067;DHT22;35952;52.524;13.340;2023-02-28T07:52:05;1.90;99.90
50067;DHT22;35952;52.524;13.340;2023-02-28T07:54:32;2.00;99.90
50067;DHT22;35952;52.524;13.340;2023-02-28T07:56:58;2.00;99.90
50067;DHT22;35952;52.524;13.340;2023-02-28T07:59:23;2.00;99.90
50067;DHT22;35952;52.524;13.340;2023-02-28T08:01:49;2.20;99.90
50067;DHT22;35952;52.524;13.340;2023-02-28T08:04:16;2.30;99.90
50067;DHT22;35952;52.524;13.340;2023-02-28T08:06:41;2.40;99.90
50067;DHT22;35952;52.524;13.340;2023-02-28T08:09:07;2.50;99.90
50067;DHT22;35952;52.524;13.340;2023-02-28T08:11:33;2.80;99.90
50067;DHT22;35952;52.524;13.340;2023-02-28T08:13:58;2.80;99.90
50067;DHT22;35952;52.524;13.340;2023-02-28T08:16:24;3.70;99.90
50067;DHT22;35952;52.524;13.340;2023-02-28T08:18:52;5.90;89.40
50067;DHT22;35952;52.524;13.340;2023-02-28T08:21:19;7.90;71.30
50067;DHT22;35952;52.524;13.340;2023-02-28T08:23:47;9.60;58.50
50067;DHT22;35952;52.524;13.340;2023-02-28T08:26:14;10.90;52.10
50067;DHT22;35952;52.524;13.340;2023-02-28T08:28:40;11.60;48.70
50067;DHT22;35952;52.524;13.340;2023-02-28T08:31:13;10.90;46.90
50067;DHT22;35952;52.524;13.340;2023-02-28T08:33:40;9.20;49.20
50067;DHT22;35952;52.524;13.340;2023-02-28T08:36:06;7.80;49.40
50067;DHT22;35952;52.524;13.340;2023-02-28T08:38:33;6.60;52.70
50067;DHT22;35952;52.524;13.340;2023-02-28T08:41:00;6.20;55.50
50067;DHT22;35952;52.524;13.340;2023-02-28T08:43:26;5.70;56.40
50067;DHT22;35952;52.524;13.340;2023-02-28T08:45:52;5.10;57.00
50067;DHT22;35952;52.524;13.340;2023-02-28T08:48:18;5.10;58.70
50067;DHT22;35952;52.524;13.340;2023-02-28T08:50:44;4.80;59.20
50067;DHT22;35952;52.524;13.340;2023-02-28T08:53:09;4.80;59.20
50067;DHT22;35952;52.524;13.340;2023-02-28T08:55:35;4.70;60.80
50067;DHT22;35952;52.524;13.340;2023-02-28T08:58:00;4.70;60.50
50067;DHT22;35952;52.524;13.340;2023-02-28T09:00:26;4.70;60.90
50067;DHT22;35952;52.524;13.340;2023-02-28T09:02:52;4.50;60.70
50067;DHT22;35952;52.524;13.340;2023-02-28T09:05:17;4.40;62.30
50067;DHT22;35952;52.524;13.340;2023-02-28T09:07:43;4.30;63.20
50067;DHT22;35952;52.524;13.340;2023-02-28T09:10:09;4.40;61.90
50067;DHT22;35952;52.524;13.340;2023-02-28T09:12:35;4.40;61.30
50067;DHT22;35952;52.524;13.340;2023-02-28T09:15:01;4.20;61.10
50067;DHT22;35952;52.524;13.340;2023-02-28T09:17:27;4.30;62.70
50067;DHT22;35952;52.524;13.340;2023-02-28T09:19:52;4.30;60.80
50067;DHT22;35952;52.524;13.340;2023-02-28T09:22:18;4.20;60.20
50067;DHT22;35952;52.524;13.340;2023-02-28T09:24:43;4.10;62.00
50067;DHT22;35952;52.524;13.340;2023-02-28T09:27:10;4.20;63.30
50067;DHT22;35952;52.524;13.340;2023-02-28T09:29:35;4.20;63.30
50067;DHT22;35952;52.524;13.340;2023-02-28T09:32:01;4.20;62.50
50067;DHT22;35952;52.524;13.340;2023-02-28T09:34:28;4.20;62.80
50067;DHT22;35952;52.524;13.340;2023-02-28T09:36:56;4.30;62.30
50067;DHT22;35952;52.524;13.340;2023-02-28T09:39:22;4.10;62.40
50067;DHT22;35952;52.524;13.340;2023-02-28T09:41:50;4.00;61.70
50067;DHT22;35952;52.524;13.340;2023-02-28T09:44:33;4.20;65.10
50067;DHT22;35952;52.524;13.340;2023-02-28T09:49:51;4.50;63.70
50067;DHT22;35952;52.524;13.340;2023-02-28T09:52:28;4.50;63.70
50067;DHT22;35952;52.524;13.340;2023-02-28T09:54:54;4.60;61.80
50067;DHT22;35952;52.524;13.340;2023-02-28T10:05:30;4.40;64.40
50067;DHT22;35952;52.524;13.340;2023-02-28T10:08:09;4.60;62.60
50067;DHT22;35952;52.524;13.340;2023-02-28T10:10:53;4.70;61.20
50067;DHT22;35952;52.524;13.340;2023-02-28T10:13:34;4.80;61.90
50067;DHT22;35952;52.524;13.340;2023-02-28T10:18:56;4.80;61.40
50067;DHT22;35952;52.524;13.340;2023-02-28T10:22:20;4.90;60.30
50067;DHT22;35952;52.524;13.340;2023-02-28T10:24:47;4.90;60.00
50067;DHT22;35952;52.524;13.340;2023-02-28T10:27:16;5.00;59.90
50067;DHT22;35952;52.524;13.340;2023-02-28T10:29:51;5.00;59.80
50067;DHT22;35952;52.524;13.340;2023-02-28T10:32:19;4.90;61.80
50067;DHT22;35952;52.524;13.340;2023-02-28T10:34:55;4.90;60.80
50067;DHT22;35952;52.524;13.340;2023-02-28T10:37:22;4.60;60.10
50067;DHT22;35952;52.524;13.340;2023-02-28T10:39:47;4.50;61.30
50067;DHT22;35952;52.524;13.340;2023-02-28T10:42:28;4.60;61.00
50067;DHT22;35952;52.524;13.340;2023-02-28T10:45:12;4.70;61.20
50067;DHT22;35952;52.524;13.340;2023-02-28T11:00:56;5.00;60.30
50067;DHT22;35952;52.524;13.340;2023-02-28T11:03:32;5.10;60.40
50067;DHT22;35952;52.524;13.340;2023-02-28T11:06:03;5.10;60.00
50067;DHT22;35952;52.524;13.340;2023-02-28T11:08:29;5.10;59.80
50067;DHT22;35952;52.524;13.340;2023-02-28T11:10:57;5.20;59.10
50067;DHT22;35952;52.524;13.340;2023-02-28T11:13:34;5.10;59.90
50067;DHT22;35952;52.524;13.340;2023-02-28T11:16:03;5.20;59.40
50067;DHT22;35952;52.524;13.340;2023-02-28T11:21:31;5.30;59.40
50067;DHT22;35952;52.524;13.340;2023-02-28T11:24:05;5.40;59.20
50067;DHT22;35952;52.524;13.340;2023-02-28T11:26:43;5.40;60.30
50067;DHT22;35952;52.524;13.340;2023-02-28T11:31:39;5.50;59.90
50067;DHT22;35952;52.524;13.340;2023-02-28T11:34:24;5.60;59.50
50067;DHT22;35952;52.524;13.340;2023-02-28T11:36:52;5.60;59.60
50067;DHT22;35952;52.524;13.340;2023-02-28T11:39:19;5.70;58.60
50067;DHT22;35952;52.524;13.340;2023-02-28T11:44:24;5.70;58.50
50067;DHT22;35952;52.524;13.340;2023-02-28T11:46:56;5.70;58.10
50067;DHT22;35952;52.524;13.340;2023-02-28T11:49:30;5.50;58.20
50067;DHT22;35952;52.524;13.340;2023-02-28T11:54:59;5.40;59.20
50067;DHT22;35952;52.524;13.340;2023-02-28T11:57:46;5.60;59.10
50067;DHT22;35952;52.524;13.340;2023-02-28T12:06:25;5.70;58.30
50067;DHT22;35952;52.524;13.340;2023-02-28T12:12:06;5.60;58.80
50067;DHT22;35952;52.524;13.340;2023-02-28T12:14:58;5.70;58.80
50067;DHT22;35952;52.524;13.340;2023-02-28T12:17:38;5.70;58.60
50067;DHT22;35952;52.524;13.340;2023-02-28T12:20:49;5.60;58.50
50067;DHT22;35952;52.524;13.340;2023-02-28T12:23:38;5.70;58.70
50067;DHT22;35952;52.524;13.340;2023-02-28T12:26:18;5.70;59.10
50067;DHT22;35952;52.524;13.340;2023-02-28T12:28:52;5.80;58.60
50067;DHT22;35952;52.524;13.340;2023-02-28T12:31:23;5.70;59.20
50067;DHT22;35952;52.524;13.340;2023-02-28T12:33:58;5.40;58.70
50067;DHT22;35952;52.524;13.340;2023-02-28T12:36:26;5.60;59.00
50067;DHT22;35952;52.524;13.340;2023-02-28T12:39:00;5.70;58.70
50067;DHT22;35952;52.524;13.340;2023-02-28T12:41:37;5.70;58.90
50067;DHT22;35952;52.524;13.340;2023-02-28T12:44:09;5.80;57.90
50067;DHT22;35952;52.524;13.340;2023-02-28T12:46:41;5.80;58.20
50067;DHT22;35952;52.524;13.340;2023-02-28T12:49:21;5.70;58.40
50067;DHT22;35952;52.524;13.340;2023-02-28T12:51:50;5.70;58.60
50067;DHT22;35952;52.524;13.340;2023-02-28T12:54:40;5.60;59.70
50067;DHT22;35952;52.524;13.340;2023-02-28T12:57:12;5.70;59.20
50067;DHT22;35952;52.524;13.340;2023-02-28T12:59:56;5.50;59.20
50067;DHT22;35952;52.524;13.340;2023-02-28T13:05:22;5.80;59.60
50067;DHT22;35952;52.524;13.340;2023-02-28T13:10:56;5.70;59.20
50067;DHT22;35952;52.524;13.340;2023-02-28T13:13:27;6.00;58.60
50067;DHT22;35952;52.524;13.340;2023-02-28T13:16:06;6.10;57.80
50067;DHT22;35952;52.524;13.340;2023-02-28T13:18:34;6.10;58.00
50067;DHT22;35952;52.524;13.340;2023-02-28T13:21:03;6.20;57.50
50067;DHT22;35952;52.524;13.340;2023-02-28T13:26:02;6.30;57.10
50067;DHT22;35952;52.524;13.340;2023-02-28T13:31:16;6.30;57.20
50067;DHT22;35952;52.524;13.340;2023-02-28T13:38:54;6.30;57.60
50067;DHT22;35952;52.524;13.340;2023-02-28T13:46:27;6.10;56.50
50067;DHT22;35952;52.524;13.340;2023-02-28T13:48:53;6.30;56.50
50067;DHT22;35952;52.524;13.340;2023-02-28T13:51:41;6.30;56.20
50067;DHT22;35952;52.524;13.340;2023-02-28T13:54:45;6.10;56.10
50067;DHT22;35952;52.524;13.340;2023-02-28T13:57:29;6.10;56.30
50067;DHT22;35952;52.524;13.340;2023-02-28T14:00:28;6.00;56.60
50067;DHT22;35952;52.524;13.340;2023-02-28T14:05:30;5.90;56.80
50067;DHT22;35952;52.524;13.340;2023-02-28T14:08:03;6.00;57.90
50067;DHT22;35952;52.524;13.340;2023-02-28T14:10:33;6.00;58.20
50067;DHT22;35952;52.524;13.340;2023-02-28T14:13:11;6.30;58.10
50067;DHT22;35952;52.524;13.340;2023-02-28T14:15:41;7.50;57.30
50067;DHT22;35952;52.524;13.340;2023-02-28T14:20:43;10.40;50.70
50067;DHT22;35952;52.524;13.340;2023-02-28T14:26:06;10.10;48.40
50067;DHT22;35952;52.524;13.340;2023-02-28T14:31:36;11.00;47.00
50067;DHT22;35952;52.524;13.340;2023-02-28T14:34:29;10.90;46.10
50067;DHT22;35952;52.524;13.340;2023-02-28T14:36:58;10.00;46.80
50067;DHT22;35952;52.524;13.340;2023-02-28T14:39:25;8.90;49.00
50067;DHT22;35952;52.524;13.340;2023-02-28T14:41:53;8.40;49.30
50067;DHT22;35952;52.524;13.340;2023-02-28T14:44:24;7.80;51.10
50067;DHT22;35952;52.524;13.340;2023-02-28T14:46:53;8.00;50.90
50067;DHT22;35952;52.524;13.340;2023-02-28T14:49:36;8.50;51.80
50067;DHT22;35952;52.524;13.340;2023-02-28T14:52:15;9.50;50.50
50067;DHT22;35952;52.524;13.340;2023-02-28T14:54:43;10.00;48.50
50067;DHT22;35952;52.524;13.340;2023-02-28T15:00:27;11.50;45.40
50067;DHT22;35952;52.524;13.340;2023-02-28T15:02:55;11.30;45.30
50067;DHT22;35952;52.524;13.340;2023-02-28T15:05:30;10.40;45.20
50067;DHT22;35952;52.524;13.340;2023-02-28T15:08:06;9.60;46.30
50067;DHT22;35952;52.524;13.340;2023-02-28T15:10:33;9.20;47.60
50067;DHT22;35952;52.524;13.340;2023-02-28T15:13:05;8.70;49.00
50067;DHT22;35952;52.524;13.340;2023-02-28T15:15:41;8.40;50.00
50067;DHT22;35952;52.524;13.340;2023-02-28T15:18:14;8.30;51.90
50067;DHT22;35952;52.524;13.340;2023-02-28T15:20:42;8.40;51.50
50067;DHT22;35952;52.524;13.340;2023-02-28T15:23:09;8.60;51.50
50067;DHT22;35952;52.524;13.340;2023-02-28T15:25:35;9.00;50.30
50067;DHT22;35952;52.524;13.340;2023-02-28T15:28:01;8.90;50.10
50067;DHT22;35952;52.524;13.340;2023-02-28T15:30:31;8.60;50.10
50067;DHT22;35952;52.524;13.340;2023-02-28T15:35:43;7.70;52.00
50067;DHT22;35952;52.524;13.340;2023-02-28T15:38:26;7.90;52.70
50067;DHT22;35952;52.524;13.340;2023-02-28T15:40:58;8.40;52.30
50067;DHT22;35952;52.524;13.340;2023-02-28T15:43:31;8.40;51.80
50067;DHT22;35952;52.524;13.340;2023-02-28T15:46:01;8.20;52.50
50067;DHT22;35952;52.524;13.340;2023-02-28T15:48:53;7.90;53.90
50067;DHT22;35952;52.524;13.340;2023-02-28T15:51:20;7.90;52.50
50067;DHT22;35952;52.524;13.340;2023-02-28T15:56:29;7.30;52.90
50067;DHT22;35952;52.524;13.340;2023-02-28T15:59:04;6.90;53.50
50067;DHT22;35952;52.524;13.340;2023-02-28T16:01:38;6.60;54.10
50067;DHT22;35952;52.524;13.340;2023-02-28T16:04:12;6.20;54.90
50067;DHT22;35952;52.524;13.340;2023-02-28T16:06:40;6.10;55.80
50067;DHT22;35952;52.524;13.340;2023-02-28T16:09:14;5.80;56.40
50067;DHT22;35952;52.524;13.340;2023-02-28T16:11:47;5.50;57.40
50067;DHT22;35952;52.524;13.340;2023-02-28T16:14:20;5.50;57.80
50067;DHT22;35952;52.524;13.340;2023-02-28T16:16:50;5.30;58.70
50067;DHT22;35952;52.524;13.340;2023-02-28T16:19:17;5.20;58.90
50067;DHT22;35952;52.524;13.340;2023-02-28T16:21:42;5.20;59.70
50067;DHT22;35952;52.524;13.340;2023-02-28T16:24:08;5.10;60.20
50067;DHT22;35952;52.524;13.340;2023-02-28T16:26:34;5.00;61.50
50067;DHT22;35952;52.524;13.340;2023-02-28T16:29:02;5.10;62.10
50067;DHT22;35952;52.524;13.340;2023-02-28T16:31:28;4.80;62.80
50067;DHT22;35952;52.524;13.340;2023-02-28T16:33:55;4.60;64.80
50067;DHT22;35952;52.524;13.340;2023-02-28T16:36:23;4.60;66.00
50067;DHT22;35952;52.524;13.340;2023-02-28T16:38:50;4.50;67.70
50067;DHT22;35952;52.524;13.340;2023-02-28T16:41:21;4.50;68.60
50067;DHT22;35952;52.524;13.340;2023-02-28T16:43:49;4.40;70.20
50067;DHT22;35952;52.524;13.340;2023-02-28T16:46:16;4.40;70.20
50067;DHT22;35952;52.524;13.340;2023-02-28T16:48:42;4.30;71.70
50067;DHT22;35952;52.524;13.340;2023-02-28T16:51:12;4.30;73.00
50067;DHT22;35952;52.524;13.340;2023-02-28T16:53:38;4.10;74.70
50067;DHT22;35952;52.524;13.340;2023-02-28T16:56:04;4.00;76.50
50067;DHT22;35952;52.524;13.340;2023-02-28T16:58:32;4.00;78.30
50067;DHT22;35952;52.524;13.340;2023-02-28T17:01:01;3.90;80.50
50067;DHT22;35952;52.524;13.340;2023-02-28T17:03:28;3.80;79.70
50067;DHT22;35952;52.524;13.340;2023-02-28T17:05:54;3.70;81.00
50067;DHT22;35952;52.524;13.340;2023-02-28T17:08:19;3.70;82.90
50067;DHT22;35952;52.524;13.340;2023-02-28T17:10:45;3.70;82.00
50067;DHT22;35952;52.524;13.340;2023-02-28T17:13:11;3.70;81.60
50067;DHT22;35952;52.524;13.340;2023-02-28T17:15:37;3.70;80.90
50067;DHT22;35952;52.524;13.340;2023-02-28T17:18:03;3.80;80.00
50067;DHT22;35952;52.524;13.340;2023-02-28T17:20:29;3.80;79.90
50067;DHT22;35952;52.524;13.340;2023-02-28T17:22:55;3.90;79.20
50067;DHT22;35952;52.524;13.340;2023-02-28T17:25:22;3.80;79.70
50067;DHT22;35952;52.524;13.340;2023-02-28T17:27:48;3.80;80.00
50067;DHT22;35952;52.524;13.340;2023-02-28T17:32:41;3.60;81.80
50067;DHT22;35952;52.524;13.340;2023-02-28T17:35:07;3.50;83.70
50067;DHT22;35952;52.524;13.340;2023-02-28T17:37:33;3.50;85.30
50067;DHT22;35952;52.524;13.340;2023-02-28T17:39:58;3.40;86.00